Time;durP1;ratioP1;P1;durP2;ratioP2;P2;SDS_P1;SDS_P2;PMS_P1;PMS_P2;Temp;Humidity;BMP_temperature;BMP_pressure;BME280_temperature;BME280_humidity;BME280_pressure;Samples;Min_cycle;Max_cycle;Signal;HPM_P1;HPM_P2
2022/07/10 00:00:22;;;;;;;5.78;2.88;;;19.60;97.40;;;;;;6862658;28;20480;-80
2022/07/10 00:03:44;;;;;;;5.07;2.97;;;19.60;97.50;;;;;;6861802;28;20432;-79
2022/07/10 00:07:07;;;;;;;5.18;2.90;;;19.70;97.40;;;;;;6862275;28;20993;-79
2022/07/10 00:10:29;;;;;;;4.90;2.70;;;19.80;97.70;;;;;;6861982;28;20443;-80
2022/07/10 00:13:53;;;;;;;5.40;3.00;;;19.90;97.60;;;;;;6863295;28;20474;-76
2022/07/10 00:17:15;;;;;;;5.55;2.90;;;19.90;97.40;;;;;;6861481;28;20783;-79
2022/07/10 00:20:37;;;;;;;5.03;2.83;;;19.90;97.30;;;;;;6861371;28;20477;-77
2022/07/10 00:23:59;;;;;;;4.95;2.80;;;19.90;97.40;;;;;;6862508;28;20442;-78
2022/07/10 00:27:21;;;;;;;5.18;2.80;;;19.90;97.50;;;;;;6861594;28;20491;-79
2022/07/10 00:30:44;;;;;;;4.90;2.80;;;19.90;97.70;;;;;;6861296;28;20506;-77
2022/07/10 00:34:07;;;;;;;5.50;3.00;;;19.90;97.50;;;;;;6860665;28;20478;-77
2022/07/10 00:37:29;;;;;;;4.55;2.70;;;19.80;97.60;;;;;;6861225;28;20498;-80
2022/07/10 00:40:51;;;;;;;5.23;3.13;;;19.80;98.10;;;;;;6862018;28;20480;-80
2022/07/10 00:44:13;;;;;;;5.45;3.03;;;19.80;98.00;;;;;;6859462;28;20468;-79
2022/07/10 00:47:36;;;;;;;4.90;2.90;;;19.80;97.40;;;;;;6861892;28;20468;-78
2022/07/10 00:50:58;;;;;;;6.43;3.10;;;19.80;97.30;;;;;;6861227;28;20432;-78
2022/07/10 00:54:21;;;;;;;5.95;3.30;;;19.80;97.20;;;;;;6860957;28;20508;-76
2022/07/10 00:57:43;;;;;;;5.05;3.10;;;19.80;97.00;;;;;;6861107;28;20914;-78
2022/07/10 01:01:06;;;;;;;5.38;2.95;;;19.90;97.40;;;;;;6859588;28;20534;-78
2022/07/10 01:04:30;;;;;;;5.05;2.83;;;19.80;97.80;;;;;;6861468;28;20440;-78
2022/07/10 01:07:52;;;;;;;10.43;6.87;;;19.80;98.00;;;;;;6860612;28;20444;-77
2022/07/10 01:11:16;;;;;;;5.80;3.55;;;19.80;98.10;;;;;;6860552;28;20511;-80
2022/07/10 01:14:39;;;;;;;4.45;2.70;;;19.80;98.00;;;;;;6860058;28;20444;-80
2022/07/10 01:18:02;;;;;;;4.70;2.85;;;19.80;98.10;;;;;;6859340;28;20483;-79
2022/07/10 01:21:26;;;;;;;4.90;2.83;;;19.80;98.10;;;;;;6867412;28;20449;-80
2022/07/10 01:24:48;;;;;;;4.75;2.80;;;19.70;98.00;;;;;;6863843;28;20473;-79
2022/07/10 01:28:10;;;;;;;4.80;2.93;;;19.70;98.10;;;;;;6859952;28;20642;-80
2022/07/10 01:31:34;;;;;;;4.78;2.80;;;19.80;98.20;;;;;;6859608;28;20447;-80
2022/07/10 01:34:56;;;;;;;5.73;2.87;;;19.70;98.10;;;;;;6860624;28;20435;-77
2022/07/10 01:38:19;;;;;;;5.03;2.80;;;19.80;97.90;;;;;;6860230;28;20519;-81
2022/07/10 01:41:41;;;;;;;5.95;3.03;;;19.70;97.90;;;;;;6858020;28;21062;-80
2022/07/10 01:45:03;;;;;;;4.93;2.90;;;19.70;98.10;;;;;;6860453;28;20567;-80
2022/07/10 01:48:25;;;;;;;5.20;2.72;;;19.70;98.10;;;;;;6859522;28;20446;-80
2022/07/10 01:51:47;;;;;;;4.88;3.08;;;19.60;98.50;;;;;;6856614;28;20511;-79
2022/07/10 01:55:11;;;;;;;6.10;3.35;;;19.50;98.80;;;;;;6859732;28;20443;-80
2022/07/10 01:58:34;;;;;;;6.83;3.30;;;19.40;98.80;;;;;;6859573;28;20949;-80
2022/07/10 02:01:56;;;;;;;5.57;3.40;;;19.40;98.30;;;;;;6860684;28;20910;-78
2022/07/10 02:05:18;;;;;;;4.90;2.97;;;19.40;98.10;;;;;;6860191;28;20463;-80
2022/07/10 02:08:40;;;;;;;6.80;3.38;;;19.40;97.90;;;;;;6860057;28;20522;-80
2022/07/10 02:12:04;;;;;;;5.75;3.50;;;19.30;98.40;;;;;;6854583;28;20474;-79
2022/07/10 02:15:26;;;;;;;6.82;3.60;;;19.30;98.20;;;;;;6858603;28;20436;-81
2022/07/10 02:18:48;;;;;;;5.95;3.53;;;19.30;98.20;;;;;;6859882;28;20976;-79
2022/07/10 02:22:10;;;;;;;5.65;3.28;;;19.30;98.30;;;;;;6859228;28;20451;-78
2022/07/10 02:25:32;;;;;;;5.78;3.40;;;19.30;97.90;;;;;;6859828;28;20957;-79
2022/07/10 02:28:56;;;;;;;5.10;3.15;;;19.30;98.40;;;;;;6860022;28;20435;-78
2022/07/10 02:32:18;;;;;;;4.90;3.00;;;19.20;98.70;;;;;;6857569;28;20464;-76
2022/07/10 02:35:40;;;;;;;5.65;2.90;;;19.20;98.90;;;;;;6859867;28;20471;-78
2022/07/10 02:39:02;;;;;;;4.93;3.30;;;19.20;99.00;;;;;;6860835;28;20436;-79
2022/07/10 02:42:24;;;;;;;6.43;3.47;;;19.10;99.10;;;;;;6856842;28;20586;-77
2022/07/10 02:45:47;;;;;;;5.40;3.40;;;19.00;98.70;;;;;;6858644;28;20906;-80
2022/07/10 02:49:09;;;;;;;7.07;3.50;;;18.90;98.40;;;;;;6859977;28;20783;-80
2022/07/10 02:52:31;;;;;;;7.72;3.85;;;18.90;98.20;;;;;;6860988;28;20906;-78
2022/07/10 02:55:53;;;;;;;4.82;3.40;;;18.90;97.90;;;;;;6863258;28;20485;-78
2022/07/10 02:59:16;;;;;;;6.00;3.50;;;18.90;98.50;;;;;;6865010;28;20968;-78
2022/07/10 03:02:40;;;;;;;6.43;3.70;;;18.90;98.10;;;;;;6863642;28;20921;-77
2022/07/10 03:06:02;;;;;;;6.18;3.90;;;18.80;97.90;;;;;;6863353;28;20835;-77
2022/07/10 03:09:25;;;;;;;5.55;3.78;;;18.80;98.10;;;;;;6864413;28;20481;-80
2022/07/10 03:12:47;;;;;;;6.03;3.40;;;18.80;98.00;;;;;;6863690;28;20522;-80
2022/07/10 03:16:09;;;;;;;5.55;3.50;;;18.80;98.00;;;;;;6863493;28;20922;-79
2022/07/10 03:19:33;;;;;;;5.20;3.70;;;18.70;98.00;;;;;;6864167;28;20432;-77
2022/07/10 03:22:55;;;;;;;6.47;3.60;;;18.70;98.10;;;;;;6865317;28;20444;-77
2022/07/10 03:26:17;;;;;;;6.28;3.90;;;18.70;98.10;;;;;;6864153;28;20432;-77
2022/07/10 03:29:40;;;;;;;6.35;4.00;;;18.60;98.50;;;;;;6876519;28;20831;-77
2022/07/10 03:33:03;;;;;;;5.65;4.05;;;18.60;98.40;;;;;;6891495;28;20438;-79
2022/07/10 03:36:26;;;;;;;6.32;3.83;;;18.70;98.40;;;;;;6867454;28;20436;-78
2022/07/10 03:39:48;;;;;;;7.05;3.92;;;18.70;98.50;;;;;;6863831;28;20853;-80
2022/07/10 03:43:10;;;;;;;7.23;4.27;;;18.70;98.70;;;;;;6862671;28;20479;-78
2022/07/10 03:46:32;;;;;;;9.52;5.65;;;18.70;98.70;;;;;;6862283;28;20853;-79
2022/07/10 03:49:54;;;;;;;10.40;5.93;;;18.60;98.90;;;;;;6859653;28;20475;-79
2022/07/10 03:53:18;;;;;;;7.25;5.13;;;18.60;99.10;;;;;;6859601;28;20776;-78
2022/07/10 04:00:22;;;;;;;8.38;5.07;;;18.60;99.10;;;;;;6866797;28;20432;-76
2022/07/10 04:03:47;;;;;;;5.95;4.55;;;18.60;99.10;;;;;;6901677;28;20888;-78
2022/07/10 04:07:10;;;;;;;7.53;4.60;;;18.50;99.50;;;;;;6865942;28;20436;-80
2022/07/10 04:10:34;;;;;;;6.77;4.57;;;18.50;99.50;;;;;;6860911;28;20447;-79
2022/07/10 04:13:56;;;;;;;7.30;4.80;;;18.50;99.70;;;;;;6862337;28;20870;-79
2022/07/10 04:17:18;;;;;;;7.78;4.97;;;18.50;99.50;;;;;;6863065;28;20471;-78
2022/07/10 04:20:40;;;;;;;7.27;4.90;;;18.40;99.60;;;;;;6861190;28;20529;-78
2022/07/10 04:24:02;;;;;;;6.25;4.63;;;18.40;99.90;;;;;;6862576;28;20443;-79
2022/07/10 04:27:25;;;;;;;6.93;4.90;;;18.50;99.80;;;;;;6862566;28;20467;-79
2022/07/10 04:30:47;;;;;;;7.23;4.97;;;18.40;99.70;;;;;;6862598;28;20428;-79
2022/07/10 04:34:09;;;;;;;7.47;5.00;;;18.50;99.80;;;;;;6861628;28;21097;-79
2022/07/10 04:37:34;;;;;;;8.33;5.10;;;18.50;99.70;;;;;;6861956;28;20428;-79
2022/07/10 04:40:56;;;;;;;7.55;4.90;;;18.40;99.70;;;;;;6860799;28;20440;-79
2022/07/10 04:44:20;;;;;;;8.93;5.30;;;18.40;99.80;;;;;;6860797;28;20439;-78
2022/07/10 04:47:42;;;;;;;7.57;4.82;;;18.40;99.70;;;;;;6861678;28;20458;-78
2022/07/10 04:51:04;;;;;;;8.23;5.05;;;18.40;99.90;;;;;;6860112;28;20462;-78
2022/07/10 04:54:27;;;;;;;6.93;4.97;;;18.40;99.90;;;;;;6859405;28;20494;-78
2022/07/10 04:57:49;;;;;;;8.23;5.10;;;18.40;99.90;;;;;;6860641;28;20484;-80
2022/07/10 05:01:12;;;;;;;7.70;4.80;;;18.40;99.90;;;;;;6853355;28;20828;-77
2022/07/10 05:04:34;;;;;;;8.13;4.78;;;18.40;99.90;;;;;;6842150;28;20468;-78
2022/07/10 05:07:56;;;;;;;7.80;4.70;;;18.30;99.90;;;;;;6848612;28;20472;-78
2022/07/10 05:11:18;;;;;;;6.57;4.80;;;18.30;99.90;;;;;;6862274;28;20498;-78
2022/07/10 05:14:40;;;;;;;7.20;4.80;;;18.40;99.90;;;;;;6859275;28;20827;-76
2022/07/10 05:18:04;;;;;;;8.13;5.43;;;18.50;99.90;;;;;;6860402;28;20480;-78
2022/07/10 05:21:26;;;;;;;7.80;5.40;;;18.40;99.90;;;;;;6857534;28;20479;-76
2022/07/10 05:24:48;;;;;;;7.40;4.97;;;18.40;99.90;;;;;;6872763;28;20924;-78
2022/07/10 05:28:12;;;;;;;9.20;5.23;;;18.40;99.90;;;;;;6864746;28;20455;-78
2022/07/10 05:31:34;;;;;;;8.65;4.72;;;18.50;99.90;;;;;;6861771;28;20443;-78
2022/07/10 05:34:59;;;;;;;7.82;4.30;;;18.50;99.90;;;;;;6863138;28;20898;-79
2022/07/10 05:38:21;;;;;;;7.50;4.30;;;18.40;99.90;;;;;;6860136;28;20471;-77
2022/07/10 05:41:43;;;;;;;6.68;3.92;;;18.50;99.90;;;;;;6868544;28;20434;-76
2022/07/10 05:45:07;;;;;;;8.07;4.10;;;18.40;99.90;;;;;;6866289;28;20443;-76
2022/07/10 05:48:29;;;;;;;7.70;4.00;;;18.30;99.90;;;;;;6860535;28;20873;-80
2022/07/10 05:51:52;;;;;;;7.00;4.00;;;18.20;99.90;;;;;;6860682;28;20494;-79
2022/07/10 05:55:15;;;;;;;6.43;3.65;;;18.30;99.70;;;;;;6857772;28;20978;-77
2022/07/10 05:58:37;;;;;;;9.10;3.83;;;18.40;99.30;;;;;;6857832;28;20479;-76
2022/07/10 06:01:59;;;;;;;6.78;3.80;;;18.30;99.40;;;;;;6858886;28;20487;-76
2022/07/10 06:05:21;;;;;;;6.30;3.10;;;18.20;99.40;;;;;;6858480;28;20928;-77
2022/07/10 06:08:46;;;;;;;6.67;3.10;;;18.30;98.80;;;;;;6856913;28;20440;-77
2022/07/10 06:12:09;;;;;;;5.67;3.00;;;18.30;98.70;;;;;;6856679;28;20514;-79
2022/07/10 06:15:31;;;;;;;5.85;2.90;;;18.40;98.10;;;;;;6857307;28;20962;-76
2022/07/10 06:18:53;;;;;;;7.15;2.78;;;18.40;97.60;;;;;;6854901;28;20950;-77
2022/07/10 06:22:33;;;;;;;5.10;2.13;;;18.20;97.60;;;;;;6856603;28;20491;-78
2022/07/10 06:25:57;;;;;;;6.32;2.35;;;18.30;96.50;;;;;;6857142;28;20992;-79
2022/07/10 06:29:19;;;;;;;5.43;2.05;;;18.50;96.00;;;;;;6863313;28;20436;-79
2022/07/10 06:32:41;;;;;;;7.93;2.70;;;18.40;95.70;;;;;;6862994;28;20444;-78
2022/07/10 06:36:04;;;;;;;5.95;2.42;;;18.40;96.10;;;;;;6870406;28;20525;-76
2022/07/10 06:39:26;;;;;;;6.40;2.80;;;18.50;96.30;;;;;;6861704;28;20467;-76
2022/07/10 06:42:50;;;;;;;5.90;2.70;;;18.50;96.40;;;;;;6859378;28;20451;-78
2022/07/10 06:46:12;;;;;;;5.18;2.25;;;18.50;96.00;;;;;;6853996;28;20444;-76
2022/07/10 06:49:33;;;;;;;5.38;2.50;;;18.50;95.80;;;;;;6855770;28;20504;-77
2022/07/10 06:52:55;;;;;;;6.47;2.30;;;18.60;95.60;;;;;;6858135;28;20440;-76
2022/07/10 06:56:18;;;;;;;4.65;2.30;;;18.50;95.60;;;;;;6853136;28;20439;-76
2022/07/10 06:59:41;;;;;;;4.70;2.00;;;18.70;95.30;;;;;;6857923;28;20440;-74
2022/07/10 07:03:03;;;;;;;7.63;2.20;;;18.60;95.00;;;;;;6857575;28;20480;-73
2022/07/10 07:06:25;;;;;;;6.93;1.88;;;18.60;94.90;;;;;;6858199;28;20956;-76
2022/07/10 07:09:49;;;;;;;6.25;1.77;;;18.60;94.40;;;;;;6859818;28;20498;-75
2022/07/10 07:13:11;;;;;;;5.00;2.03;;;18.70;93.50;;;;;;6875933;28;20464;-75
2022/07/10 07:16:42;;;;;;;4.03;1.70;;;18.80;93.60;;;;;;6859364;28;20495;-74
2022/07/10 07:23:45;;;;;;;6.60;2.08;;;19.10;93.30;;;;;;6877926;28;20443;-79
2022/07/10 07:27:07;;;;;;;5.82;1.90;;;19.00;92.60;;;;;;6858266;28;20467;-77
2022/07/10 07:30:29;;;;;;;4.47;1.88;;;19.00;92.50;;;;;;6859495;28;20491;-79
2022/07/10 07:33:53;;;;;;;5.50;1.90;;;19.00;92.10;;;;;;6858807;28;20479;-78
2022/07/10 07:37:15;;;;;;;4.80;1.80;;;19.10;92.10;;;;;;6858852;28;20487;-79
2022/07/10 07:40:38;;;;;;;5.30;1.80;;;19.10;92.00;;;;;;6862453;28;20891;-77
2022/07/10 07:44:00;;;;;;;4.07;1.75;;;19.00;92.10;;;;;;6853451;28;20464;-77
2022/07/10 07:47:22;;;;;;;6.07;1.87;;;19.00;92.40;;;;;;6858882;28;20503;-79
2022/07/10 07:50:45;;;;;;;4.30;1.58;;;18.90;91.70;;;;;;6859301;28;20437;-76
2022/07/10 07:54:07;;;;;;;4.60;1.67;;;18.90;91.90;;;;;;6839350;28;20969;-77
2022/07/10 07:57:29;;;;;;;5.10;1.75;;;18.90;90.80;;;;;;6857775;28;20475;-77
2022/07/10 08:00:51;;;;;;;5.95;1.75;;;18.90;91.20;;;;;;6856189;28;21731;-76
2022/07/10 08:04:13;;;;;;;4.63;1.70;;;18.60;91.50;;;;;;6859144;28;21108;-78
2022/07/10 08:07:39;;;;;;;4.53;1.77;;;18.80;91.20;;;;;;6856972;28;20440;-78
2022/07/10 08:11:01;;;;;;;6.10;1.83;;;19.00;91.00;;;;;;6862452;28;20500;-77
2022/07/10 08:14:23;;;;;;;6.60;1.92;;;18.90;91.40;;;;;;6863358;28;21004;-77
2022/07/10 08:17:49;;;;;;;4.93;1.60;;;18.90;91.30;;;;;;6863255;28;20430;-78
2022/07/10 08:21:11;;;;;;;5.22;1.98;;;19.00;91.20;;;;;;6883577;28;20437;-77
2022/07/10 08:24:34;;;;;;;5.55;1.67;;;18.80;91.10;;;;;;6889390;28;20915;-77
2022/07/10 08:28:01;;;;;;;5.30;1.60;;;19.00;90.70;;;;;;6890153;28;20434;-78
2022/07/10 08:31:24;;;;;;;4.68;1.88;;;19.20;90.90;;;;;;6863274;28;20435;-79
2022/07/10 08:34:46;;;;;;;5.30;1.83;;;19.00;91.20;;;;;;6861936;28;20447;-77
2022/07/10 08:38:09;;;;;;;7.00;2.20;;;19.10;91.60;;;;;;6863295;28;20436;-80
2022/07/10 08:41:36;;;;;;;6.15;1.80;;;19.10;91.10;;;;;;6855770;28;20444;-78
2022/07/10 08:44:58;;;;;;;4.85;1.83;;;19.10;90.30;;;;;;6849435;28;21000;-79
2022/07/10 08:48:23;;;;;;;5.60;1.90;;;19.10;90.40;;;;;;6862681;28;20803;-74
2022/07/10 08:51:56;;;;;;;5.30;1.90;;;19.00;90.40;;;;;;6863289;28;20471;-75
2022/07/10 08:55:21;;;;;;;4.63;1.80;;;18.90;90.10;;;;;;6860227;28;20440;-80
2022/07/10 08:58:45;;;;;;;3.97;1.55;;;19.00;90.50;;;;;;6884180;28;20430;-80
2022/07/10 09:02:07;;;;;;;5.38;1.73;;;19.10;90.70;;;;;;6845348;28;20945;-80
2022/07/10 09:05:29;;;;;;;5.20;1.90;;;19.20;87.80;;;;;;6843915;28;20441;-77
2022/07/10 09:09:02;;;;;;;5.30;1.95;;;19.20;90.40;;;;;;6835795;29;20987;-77
2022/07/10 09:12:25;;;;;;;5.72;1.90;;;19.20;90.90;;;;;;6862159;28;20451;-78
2022/07/10 09:15:51;;;;;;;5.78;2.30;;;19.30;89.80;;;;;;6872106;28;20439;-79
2022/07/10 09:19:19;;;;;;;5.53;2.10;;;19.20;88.80;;;;;;6875395;28;20445;-78
2022/07/10 09:22:41;;;;;;;4.85;2.03;;;19.20;88.40;;;;;;6854639;28;20462;-78
2022/07/10 09:26:06;;;;;;;4.93;1.80;;;19.20;89.20;;;;;;6860993;28;20930;-79
2022/07/10 09:29:28;;;;;;;5.93;1.97;;;19.30;87.70;;;;;;6887568;28;20604;-80
2022/07/10 09:32:51;;;;;;;4.80;1.70;;;19.30;88.30;;;;;;6870861;28;20469;-80
2022/07/10 09:36:14;;;;;;;4.72;1.70;;;19.40;89.00;;;;;;6858429;28;20447;-81
2022/07/10 09:39:37;;;;;;;5.72;1.70;;;19.60;87.30;;;;;;6859674;28;20446;-78
2022/07/10 09:43:00;;;;;;;4.25;1.60;;;19.70;85.10;;;;;;6859779;28;20909;-78
2022/07/10 09:46:25;;;;;;;5.03;1.70;;;19.80;84.10;;;;;;6844103;28;20437;-78
2022/07/10 09:49:48;;;;;;;3.90;1.60;;;19.80;84.00;;;;;;6854407;28;20532;-79
2022/07/10 09:53:10;;;;;;;4.93;1.52;;;19.80;84.50;;;;;;6856965;28;20472;-78
2022/07/10 09:56:41;;;;;;;5.43;1.40;;;20.00;83.40;;;;;;6855262;28;20509;-76
2022/07/10 10:00:03;;;;;;;5.33;1.63;;;20.00;83.90;;;;;;6875035;28;20528;-78
2022/07/10 10:03:26;;;;;;;5.37;1.63;;;20.00;83.40;;;;;;6855219;28;20925;-79
2022/07/10 10:06:53;;;;;;;4.20;1.60;;;19.90;82.20;;;;;;6861085;28;20446;-78
2022/07/10 10:10:16;;;;;;;3.95;1.60;;;19.90;81.30;;;;;;6855291;28;20455;-78
2022/07/10 10:13:38;;;;;;;5.17;1.50;;;19.90;82.70;;;;;;6854354;28;20548;-78
2022/07/10 10:17:01;;;;;;;4.75;1.63;;;19.90;81.20;;;;;;6843138;28;21007;-80
2022/07/10 10:20:41;;;;;;;4.43;1.42;;;19.90;81.50;;;;;;6854011;28;20471;-78
2022/07/10 10:24:06;;;;;;;4.75;1.50;;;20.00;80.80;;;;;;6854820;28;20447;-78
2022/07/10 10:27:29;;;;;;;4.10;1.42;;;20.00;79.60;;;;;;6855077;28;20784;-74
2022/07/10 10:30:54;;;;;;;3.70;1.23;;;20.20;80.30;;;;;;6853023;28;20536;-76
2022/07/10 10:34:42;;;;;;;3.50;1.37;;;20.20;79.70;;;;;;6853699;28;20440;-76
2022/07/10 10:38:05;;;;;;;4.70;1.40;;;20.20;79.70;;;;;;6850627;28;20490;-76
2022/07/10 10:41:32;;;;;;;4.25;1.42;;;20.00;77.10;;;;;;6855342;28;20449;-75
2022/07/10 10:45:39;;;;;;;4.40;1.30;;;20.10;75.70;;;;;;6855433;28;20454;-76
2022/07/10 10:49:07;;;;;;;5.18;1.50;;;19.90;74.40;;;;;;6856064;28;20479;-74
2022/07/10 10:52:29;;;;;;;4.40;1.35;;;20.00;75.00;;;;;;6854574;28;21307;-76
2022/07/10 10:56:24;;;;;;;6.13;1.70;;;20.20;76.00;;;;;;6855629;28;20443;-75
2022/07/10 10:59:49;;;;;;;4.80;1.50;;;20.20;77.10;;;;;;6854454;28;20444;-75
2022/07/10 11:03:20;;;;;;;5.43;1.40;;;19.90;76.70;;;;;;6855408;28;20442;-76
2022/07/10 11:06:43;;;;;;;5.63;1.60;;;20.00;77.30;;;;;;6852000;28;21254;-77
2022/07/10 11:10:28;;;;;;;5.95;1.40;;;20.00;76.30;;;;;;6840854;28;20474;-79
2022/07/10 11:13:51;;;;;;;4.30;1.35;;;20.20;75.40;;;;;;6849904;28;20444;-75
2022/07/10 11:17:15;;;;;;;4.20;1.20;;;20.20;74.10;;;;;;6859852;28;20440;-76
2022/07/10 11:20:38;;;;;;;3.60;1.33;;;19.90;75.30;;;;;;6859519;28;20451;-75
2022/07/10 11:24:10;;;;;;;5.07;1.50;;;20.00;76.80;;;;;;6858898;28;20452;-75
2022/07/10 11:28:01;;;;;;;4.95;1.40;;;20.10;75.60;;;;;;6855216;28;20435;-77
2022/07/10 11:31:25;;;;;;;4.70;1.42;;;20.10;74.00;;;;;;6857147;28;20532;-74
2022/07/10 11:34:50;;;;;;;5.72;1.52;;;20.00;74.50;;;;;;6859650;28;20435;-77
2022/07/10 11:38:12;;;;;;;3.47;1.20;;;20.00;74.70;;;;;;6859328;28;20459;-77
2022/07/10 11:41:34;;;;;;;4.40;1.85;;;20.20;75.00;;;;;;6861299;28;20923;-78
2022/07/10 11:44:56;;;;;;;3.72;1.45;;;20.30;74.00;;;;;;6859947;28;20465;-77
2022/07/10 11:48:19;;;;;;;6.93;2.00;;;20.50;73.10;;;;;;6850091;28;20563;-76
2022/07/10 11:51:44;;;;;;;6.18;1.40;;;20.50;76.80;;;;;;6852555;28;20459;-75
2022/07/10 11:55:16;;;;;;;3.88;1.27;;;20.30;75.30;;;;;;6858461;28;20528;-76
2022/07/10 11:58:38;;;;;;;4.00;1.40;;;20.40;72.30;;;;;;6867111;28;20442;-76
2022/07/10 12:02:00;;;;;;;4.82;1.20;;;20.50;71.00;;;;;;6857427;28;20627;-76
2022/07/10 12:05:36;;;;;;;4.18;1.40;;;20.50;71.10;;;;;;6855793;28;20475;-76
2022/07/10 12:09:03;;;;;;;4.47;1.30;;;20.70;70.70;;;;;;6857984;28;20440;-76
2022/07/10 12:12:26;;;;;;;5.53;1.30;;;20.60;72.80;;;;;;6857843;28;20559;-75
2022/07/10 12:15:48;;;;;;;4.20;1.30;;;20.70;73.20;;;;;;6857312;28;20945;-78
2022/07/10 12:19:12;;;;;;;5.95;1.50;;;20.80;72.40;;;;;;6857247;28;20972;-78
2022/07/10 12:22:34;;;;;;;5.18;1.50;;;20.90;73.50;;;;;;6858903;28;20814;-80
2022/07/10 12:25:58;;;;;;;5.03;1.30;;;21.00;72.70;;;;;;6858906;28;20486;-78
2022/07/10 12:29:22;;;;;;;7.00;3.22;;;21.10;70.40;;;;;;6856586;28;20475;-78
2022/07/10 12:32:44;;;;;;;5.72;1.38;;;21.10;70.60;;;;;;6857831;28;20486;-78
2022/07/10 12:36:07;;;;;;;4.40;1.45;;;21.20;70.90;;;;;;6858203;28;20512;-75
2022/07/10 12:39:32;;;;;;;5.10;1.27;;;21.10;70.00;;;;;;6856785;28;20436;-80
2022/07/10 12:43:03;;;;;;;4.68;1.20;;;21.20;71.30;;;;;;6856955;28;20478;-79
2022/07/10 12:46:25;;;;;;;4.68;1.30;;;21.30;70.50;;;;;;6858404;28;20443;-81
2022/07/10 12:49:53;;;;;;;4.65;1.20;;;21.60;71.10;;;;;;6856945;28;20806;-80
2022/07/10 12:53:15;;;;;;;3.55;1.13;;;21.70;68.70;;;;;;6863875;28;20440;-78
2022/07/10 12:56:38;;;;;;;3.80;1.00;;;21.70;67.70;;;;;;6857319;28;20479;-76
2022/07/10 13:00:12;;;;;;;4.00;1.10;;;21.70;66.50;;;;;;6857185;28;20443;-76
2022/07/10 13:03:34;;;;;;;4.32;1.10;;;22.10;65.90;;;;;;6857957;28;20444;-77
2022/07/10 13:07:14;;;;;;;4.57;1.02;;;22.00;66.90;;;;;;6856310;28;20463;-76
2022/07/10 13:10:36;;;;;;;4.40;1.20;;;22.20;65.00;;;;;;6858139;28;20447;-76
2022/07/10 13:13:58;;;;;;;11.02;6.05;;;22.10;63.20;;;;;;6858281;28;20443;-77
2022/07/10 13:17:23;;;;;;;4.80;1.23;;;22.40;66.20;;;;;;6857354;28;20475;-77
2022/07/10 13:20:45;;;;;;;4.78;0.85;;;22.50;64.10;;;;;;6858644;28;20444;-77
2022/07/10 13:24:07;;;;;;;3.15;0.98;;;22.60;62.00;;;;;;6855506;28;20550;-77
2022/07/10 13:27:30;;;;;;;3.40;1.07;;;22.90;62.30;;;;;;6856083;28;20437;-77
2022/07/10 13:30:52;;;;;;;3.30;1.10;;;23.00;61.20;;;;;;6865926;28;20444;-77
2022/07/10 13:34:15;;;;;;;3.08;0.90;;;23.20;58.40;;;;;;6865777;28;20458;-76
2022/07/10 13:37:38;;;;;;;4.57;1.00;;;23.10;60.70;;;;;;6855821;28;20873;-76
2022/07/10 13:41:00;;;;;;;4.03;1.20;;;23.10;61.30;;;;;;6855966;28;20447;-76
2022/07/10 13:44:22;;;;;;;4.35;1.70;;;23.40;61.20;;;;;;6855183;28;20448;-74
2022/07/10 13:47:44;;;;;;;4.05;1.10;;;23.50;59.30;;;;;;6883125;28;20481;-77
2022/07/10 13:51:07;;;;;;;4.10;1.23;;;23.50;59.00;;;;;;6866100;28;20443;-75
2022/07/10 13:54:29;;;;;;;3.67;0.98;;;23.60;58.80;;;;;;6856218;28;20452;-77
2022/07/10 13:57:52;;;;;;;3.53;0.93;;;23.60;58.90;;;;;;6855895;28;20443;-75
2022/07/10 14:01:14;;;;;;;3.65;0.95;;;23.90;58.60;;;;;;6856995;28;20440;-76
2022/07/10 14:04:36;;;;;;;3.38;0.90;;;23.80;58.10;;;;;;6855151;28;20487;-76
2022/07/10 14:08:00;;;;;;;4.28;0.90;;;24.00;59.10;;;;;;6856454;28;20471;-76
2022/07/10 14:11:22;;;;;;;4.15;0.90;;;23.90;60.40;;;;;;6860549;28;20509;-76
2022/07/10 14:14:44;;;;;;;4.38;1.05;;;24.20;58.40;;;;;;6857422;28;20798;-75
2022/07/10 14:18:06;;;;;;;3.75;1.08;;;24.20;59.00;;;;;;6853723;28;20936;-77
2022/07/10 14:21:28;;;;;;;5.90;2.25;;;24.50;57.50;;;;;;6855190;28;20555;-77
2022/07/10 14:24:53;;;;;;;4.07;1.35;;;24.40;57.40;;;;;;6857300;28;20504;-75
2022/07/10 14:28:16;;;;;;;3.42;0.93;;;24.40;58.00;;;;;;6856074;28;20428;-76
2022/07/10 14:31:39;;;;;;;4.72;1.10;;;24.30;56.80;;;;;;6856418;28;20478;-75
2022/07/10 14:35:01;;;;;;;2.73;0.80;;;24.10;57.60;;;;;;6853879;28;20447;-77
2022/07/10 14:38:23;;;;;;;3.63;1.00;;;24.50;58.00;;;;;;6870614;28;20484;-76
2022/07/10 14:41:46;;;;;;;3.90;0.82;;;24.60;56.30;;;;;;6856342;28;20440;-76
2022/07/10 14:45:10;;;;;;;3.97;1.13;;;24.70;56.10;;;;;;6854927;28;20490;-78
2022/07/10 14:48:34;;;;;;;3.25;1.00;;;24.90;56.60;;;;;;6857427;28;20482;-76
2022/07/10 14:51:56;;;;;;;5.43;1.73;;;25.20;56.30;;;;;;6861301;28;20471;-74
2022/07/10 14:55:18;;;;;;;4.50;1.37;;;25.40;55.30;;;;;;6861769;28;20484;-77
2022/07/10 14:58:41;;;;;;;4.30;1.00;;;25.00;54.80;;;;;;6861049;28;20447;-74
2022/07/10 15:02:04;;;;;;;3.67;0.90;;;25.30;55.00;;;;;;6873176;28;20473;-75
2022/07/10 15:05:26;;;;;;;3.17;1.00;;;25.60;54.70;;;;;;6864276;28;20960;-74
2022/07/10 15:08:50;;;;;;;4.63;1.27;;;25.30;54.40;;;;;;6871386;28;20446;-77
2022/07/10 15:12:12;;;;;;;4.90;1.00;;;25.60;55.10;;;;;;6868679;28;20459;-75
2022/07/10 15:15:36;;;;;;;3.88;0.90;;;25.70;54.40;;;;;;6885344;28;20438;-76
2022/07/10 15:18:58;;;;;;;3.25;0.77;;;26.00;52.90;;;;;;6873883;28;20447;-76
2022/07/10 15:22:20;;;;;;;3.33;0.75;;;26.20;53.70;;;;;;6887365;28;20504;-76
2022/07/10 15:25:43;;;;;;;4.10;0.80;;;26.30;51.90;;;;;;6867519;28;20452;-76
2022/07/10 15:29:05;;;;;;;3.70;0.88;;;25.70;52.60;;;;;;6858208;28;20475;-79
2022/07/10 15:32:28;;;;;;;3.40;0.88;;;25.20;52.50;;;;;;6859754;28;20478;-80
2022/07/10 15:35:50;;;;;;;2.85;0.80;;;25.30;52.40;;;;;;6862380;28;20446;-80
2022/07/10 15:39:13;;;;;;;3.67;1.00;;;25.70;51.90;;;;;;6859611;28;20802;-80
2022/07/10 15:42:35;;;;;;;4.93;0.98;;;25.90;52.90;;;;;;6859889;28;20491;-78
2022/07/10 15:45:58;;;;;;;2.58;0.80;;;25.90;51.70;;;;;;6860311;28;20475;-78
2022/07/10 15:49:22;;;;;;;4.47;1.70;;;25.30;52.00;;;;;;6833753;28;20488;-77
2022/07/10 15:52:45;;;;;;;4.78;1.48;;;25.50;53.10;;;;;;6832416;28;20441;-77
2022/07/10 15:56:08;;;;;;;3.90;1.03;;;26.00;52.40;;;;;;6831486;29;20429;-78
2022/07/10 15:59:31;;;;;;;3.17;0.98;;;26.20;51.30;;;;;;6833644;28;20441;-77
2022/07/10 16:02:53;;;;;;;4.88;1.88;;;26.40;50.70;;;;;;6832391;28;20464;-78
2022/07/10 16:06:17;;;;;;;3.87;1.30;;;26.20;50.70;;;;;;6831952;29;20441;-79
2022/07/10 16:09:39;;;;;;;5.22;1.25;;;26.90;51.30;;;;;;6834980;28;20480;-79
2022/07/10 16:13:01;;;;;;;5.40;1.80;;;27.40;48.60;;;;;;6833178;29;20477;-75
2022/07/10 16:16:23;;;;;;;5.15;1.70;;;26.90;48.80;;;;;;6832534;28;20446;-76
2022/07/10 16:19:46;;;;;;;3.60;1.25;;;26.60;50.00;;;;;;6837591;28;20440;-78
2022/07/10 16:23:10;;;;;;;3.92;1.15;;;26.40;50.00;;;;;;6849048;28;20502;-78
2022/07/10 16:26:33;;;;;;;4.87;1.70;;;26.20;50.20;;;;;;6829597;28;20808;-75
2022/07/10 16:29:55;;;;;;;4.60;2.10;;;26.40;50.90;;;;;;6831964;28;20931;-76
2022/07/10 16:33:17;;;;;;;3.97;1.40;;;26.00;50.40;;;;;;6831569;28;20477;-76
2022/07/10 16:36:39;;;;;;;3.95;1.13;;;26.10;49.70;;;;;;6832476;29;20453;-77
2022/07/10 16:40:02;;;;;;;3.35;1.00;;;26.20;48.80;;;;;;6831704;28;20452;-77
2022/07/10 16:43:29;;;;;;;3.15;0.90;;;26.20;48.70;;;;;;6832566;28;20434;-75
2022/07/10 16:46:51;;;;;;;3.75;1.20;;;26.30;48.90;;;;;;6838923;28;20459;-75
2022/07/10 16:50:13;;;;;;;3.63;1.13;;;26.30;49.80;;;;;;6858303;28;20440;-75
2022/07/10 16:53:37;;;;;;;3.42;1.00;;;26.50;48.80;;;;;;6858875;28;20496;-75
2022/07/10 16:57:01;;;;;;;3.50;0.90;;;26.40;48.30;;;;;;6831964;28;20488;-76
2022/07/10 17:00:24;;;;;;;5.53;2.30;;;26.30;48.60;;;;;;6832103;28;20584;-77
2022/07/10 17:03:47;;;;;;;2.95;0.88;;;26.30;53.00;;;;;;6858198;28;20475;-77
2022/07/10 17:07:10;;;;;;;4.35;0.93;;;26.40;48.10;;;;;;6857208;28;20491;-79
2022/07/10 17:10:32;;;;;;;3.90;0.80;;;26.60;47.40;;;;;;6857561;28;20440;-77
2022/07/10 17:13:55;;;;;;;4.55;0.80;;;26.10;49.10;;;;;;6858219;28;20435;-77
2022/07/10 17:17:17;;;;;;;3.60;1.00;;;26.40;49.60;;;;;;6860120;28;20487;-79
2022/07/10 17:20:39;;;;;;;3.40;0.80;;;26.20;49.20;;;;;;6855595;28;21011;-77
2022/07/10 17:24:01;;;;;;;3.55;1.00;;;26.40;51.80;;;;;;6857700;28;20890;-77
2022/07/10 17:27:23;;;;;;;4.05;1.60;;;26.40;51.00;;;;;;6860547;28;20436;-75
2022/07/10 17:30:47;;;;;;;3.20;1.00;;;26.40;49.70;;;;;;6856560;28;20535;-75
2022/07/10 17:34:10;;;;;;;3.40;0.90;;;26.50;49.20;;;;;;6849145;28;20471;-77
2022/07/10 17:37:32;;;;;;;3.30;0.98;;;26.10;48.60;;;;;;6856397;28;20464;-79
2022/07/10 17:40:54;;;;;;;3.17;0.90;;;25.70;50.20;;;;;;6866133;28;20465;-79
2022/07/10 17:44:16;;;;;;;3.72;0.90;;;25.50;49.70;;;;;;6865844;28;20444;-79